OPLA/LHE METAR and TAF weather

Enter ICAO airport designator
Station Type Date Time Source
OPLA METAR 2022/01/26 20:55 UTC NOAA

OPLA 262055Z 13003KT 0200 FG NSC 09/07 Q1016 BECMG 0100 RMK QFE988 A30.01


Station Type Date Time Source
OPLA Decoded METAR 2022/01/26 20:55 UTC NOAA

Lahore Airport, Pakistan (OPLA) 31-31N 074-24E 217M
Jan 26, 2022 - 03:55 PM EST / 2022.01.26 2055 UTC
Wind: from the SE (130 degrees) at 3 MPH (3 KT):0
Visibility: less than 1 mile:0
Weather: fog
Temperature: 48 F (9 C)
Dew Point: 44 F (7 C)
Relative Humidity: 87%
Pressure (altimeter): 30.00 in. Hg (1016 hPa)
ob: OPLA 262055Z 13003KT 0200 FG NSC 09/07 Q1016 BECMG 0100 RMK QFE988 A30.01
cycle: 21

Station Type Date Time Source
OPLA TAF 2022/01/26 18:12 UTC NOAA

TAF TAF OPLA 261545Z 2618/2724 VRB02KT 1500 BR NSC TX18/2710Z TN06/2702Z
FM262100 00000KT 0800 FG NSC PROB40
TEMPO 2623/2704 00000KT 0400 FG VV///
BECMG 2705/2707 33006KT 1500 FU
FM270900 31008KT 3000 FU NSC
FM271800 VRB02KT 1500 BR NSC

Example: see airport list